Time;durP1;ratioP1;P1;durP2;ratioP2;P2;SDS_P1;SDS_P2;PMS_P1;PMS_P2;Temp;Humidity;BMP_temperature;BMP_pressure;BME280_temperature;BME280_humidity;BME280_pressure;Samples;Min_cycle;Max_cycle;Signal;HPM_P1;HPM_P2
2023/01/28 00:02:13;;;;;;;13.37;6.83;;;5.60;95.10;;;;;;5063816;28;20238;-75
2023/01/28 00:04:41;;;;;;;10.87;5.80;;;5.60;95.00;;;;;;5067488;28;20239;-74
2023/01/28 00:07:10;;;;;;;13.83;7.00;;;5.70;95.00;;;;;;5070781;28;20526;-74
2023/01/28 00:09:38;;;;;;;11.97;7.00;;;5.70;94.90;;;;;;5071221;28;20196;-76
2023/01/28 00:12:07;;;;;;;15.33;6.47;;;5.70;95.00;;;;;;5066577;28;20251;-75
2023/01/28 00:14:35;;;;;;;13.30;6.10;;;5.70;95.00;;;;;;5068430;28;20191;-75
2023/01/28 00:17:05;;;;;;;15.13;6.27;;;5.70;95.30;;;;;;5069546;28;20232;-75
2023/01/28 00:19:34;;;;;;;15.33;7.20;;;5.70;94.90;;;;;;5072874;28;20196;-78
2023/01/28 00:22:03;;;;;;;10.93;6.47;;;5.80;94.90;;;;;;5067236;28;20233;-75
2023/01/28 00:24:31;;;;;;;12.40;6.23;;;5.70;94.90;;;;;;5073190;28;20205;-75
2023/01/28 00:26:59;;;;;;;12.80;6.83;;;5.70;94.90;;;;;;5075012;28;20204;-75
2023/01/28 00:29:28;;;;;;;16.20;7.30;;;5.80;94.90;;;;;;5067826;28;20224;-75
2023/01/28 00:31:56;;;;;;;12.30;6.73;;;5.80;94.80;;;;;;5069769;28;20596;-74
2023/01/28 00:34:25;;;;;;;15.30;7.30;;;5.80;94.80;;;;;;5070643;28;20853;-75
2023/01/28 00:36:57;;;;;;;14.17;7.20;;;5.80;95.00;;;;;;5073980;28;20450;-75
2023/01/28 00:39:26;;;;;;;13.27;6.13;;;5.80;95.00;;;;;;5075176;28;20197;-74
2023/01/28 00:41:55;;;;;;;15.77;7.07;;;5.80;94.90;;;;;;5074113;28;20225;-75
2023/01/28 00:44:23;;;;;;;13.47;6.90;;;5.80;94.80;;;;;;5074006;28;20193;-74
2023/01/28 00:46:51;;;;;;;13.07;6.37;;;5.80;94.80;;;;;;5070123;28;20201;-74
2023/01/28 00:49:20;;;;;;;12.90;6.60;;;5.90;94.80;;;;;;5078065;28;20196;-74
2023/01/28 00:51:48;;;;;;;13.87;6.10;;;5.80;94.70;;;;;;5068299;28;20255;-75
2023/01/28 00:54:18;;;;;;;12.87;7.07;;;5.80;94.60;;;;;;5067551;28;20197;-74
2023/01/28 00:56:46;;;;;;;15.87;5.87;;;5.90;94.60;;;;;;5076448;28;20217;-74
2023/01/28 00:59:15;;;;;;;14.23;7.03;;;5.80;94.50;;;;;;5069839;28;20194;-74
2023/01/28 01:01:43;;;;;;;12.13;5.87;;;5.80;94.50;;;;;;5071742;28;20216;-74
2023/01/28 01:04:12;;;;;;;12.30;6.57;;;5.80;94.50;;;;;;5071204;28;20613;-74
2023/01/28 01:06:41;;;;;;;11.00;5.37;;;5.80;94.40;;;;;;5073413;28;20186;-75
2023/01/28 01:09:11;;;;;;;12.70;6.10;;;5.80;94.40;;;;;;5075737;28;20280;-73
2023/01/28 01:11:41;;;;;;;11.10;5.73;;;5.80;94.40;;;;;;5073282;28;20194;-73
2023/01/28 01:14:10;;;;;;;9.57;5.10;;;5.80;94.40;;;;;;5076029;28;20600;-75
2023/01/28 01:16:39;;;;;;;14.77;5.70;;;5.80;94.40;;;;;;5073341;28;20198;-73
2023/01/28 01:19:07;;;;;;;14.23;5.60;;;5.80;94.40;;;;;;5075740;28;20215;-74
2023/01/28 01:21:36;;;;;;;10.40;5.33;;;5.80;94.40;;;;;;5069973;28;20193;-74
2023/01/28 01:24:05;;;;;;;10.67;5.77;;;5.80;94.40;;;;;;5078419;28;20622;-75
2023/01/28 01:26:33;;;;;;;11.30;5.30;;;5.80;94.40;;;;;;5075372;28;20193;-78
2023/01/28 01:29:03;;;;;;;11.43;5.53;;;5.90;94.40;;;;;;5075829;28;20556;-73
2023/01/28 01:31:31;;;;;;;12.50;6.17;;;5.90;94.40;;;;;;5068819;28;21553;-73
2023/01/28 01:34:00;;;;;;;11.70;5.17;;;5.80;94.30;;;;;;5074803;28;20197;-73
2023/01/28 01:36:28;;;;;;;13.70;6.13;;;5.90;94.30;;;;;;5075554;28;20250;-73
2023/01/28 01:38:56;;;;;;;11.47;5.43;;;5.90;94.30;;;;;;5074151;28;20194;-74
2023/01/28 01:41:28;;;;;;;10.43;5.90;;;5.90;94.30;;;;;;5077912;28;20205;-74
2023/01/28 01:43:59;;;;;;;11.50;5.50;;;5.90;94.40;;;;;;5078728;28;20278;-73
2023/01/28 01:46:34;;;;;;;11.67;5.50;;;5.90;94.40;;;;;;5074082;28;20193;-74
2023/01/28 01:49:14;;;;;;;9.50;5.17;;;5.90;94.40;;;;;;5073070;28;20541;-73
2023/01/28 01:51:45;;;;;;;10.63;5.03;;;6.00;94.40;;;;;;5078787;28;20231;-73
2023/01/28 01:54:14;;;;;;;11.70;5.27;;;6.00;94.40;;;;;;5075758;28;20612;-73
2023/01/28 01:56:44;;;;;;;12.07;6.27;;;6.00;94.40;;;;;;5076957;28;20201;-73
2023/01/28 01:59:17;;;;;;;12.00;5.47;;;5.90;94.30;;;;;;5079329;28;20247;-73
2023/01/28 02:01:48;;;;;;;9.67;5.13;;;5.90;94.30;;;;;;5071060;28;20197;-73
2023/01/28 02:04:22;;;;;;;9.80;4.97;;;6.00;94.30;;;;;;5070555;28;20209;-72
2023/01/28 02:06:51;;;;;;;10.30;4.90;;;6.00;94.40;;;;;;5068415;28;20250;-74
2023/01/28 02:09:24;;;;;;;10.53;5.23;;;6.00;94.40;;;;;;5073798;28;20187;-73
2023/01/28 02:11:54;;;;;;;10.03;5.50;;;6.00;94.40;;;;;;5075131;28;20205;-73
2023/01/28 02:14:26;;;;;;;10.57;5.17;;;6.00;94.30;;;;;;5076680;28;20209;-73
2023/01/28 02:17:01;;;;;;;9.27;4.90;;;6.00;94.30;;;;;;5075167;28;20651;-73
2023/01/28 02:19:36;;;;;;;12.43;4.97;;;6.00;94.30;;;;;;5071275;28;20638;-73
2023/01/28 02:22:19;;;;;;;10.20;4.87;;;6.00;94.30;;;;;;5071155;28;20193;-73
2023/01/28 02:25:08;;;;;;;10.20;5.07;;;6.00;94.80;;;;;;5071312;28;20227;-73
2023/01/28 02:27:49;;;;;;;10.67;5.27;;;6.00;94.40;;;;;;5073958;28;20201;-73
2023/01/28 02:30:22;;;;;;;12.10;5.70;;;6.00;94.40;;;;;;5071645;28;20198;-73
2023/01/28 02:32:55;;;;;;;9.87;5.00;;;6.10;94.40;;;;;;5073033;28;20193;-73
2023/01/28 02:35:34;;;;;;;13.10;6.03;;;6.10;94.50;;;;;;5066772;28;20190;-72
2023/01/28 02:38:11;;;;;;;12.80;6.43;;;6.10;94.40;;;;;;5074681;28;20187;-72
2023/01/28 02:43:32;;;;;;;9.27;5.00;;;6.10;94.40;;;;;;5068120;28;20222;-73
2023/01/28 02:48:56;;;;;;;11.27;5.03;;;6.20;94.30;;;;;;5074248;28;20185;-72
2023/01/28 02:51:33;;;;;;;10.87;5.50;;;6.20;94.30;;;;;;5071698;28;20196;-73
2023/01/28 02:54:10;;;;;;;12.40;6.38;;;6.20;94.30;;;;;;5066681;28;20492;-74
2023/01/28 02:56:46;;;;;;;10.67;5.80;;;6.20;94.60;;;;;;5068972;28;20235;-73
2023/01/28 02:59:34;;;;;;;11.43;5.90;;;6.20;94.50;;;;;;5069214;28;20197;-72
2023/01/28 03:02:12;;;;;;;12.10;6.17;;;6.20;94.50;;;;;;5069054;28;20228;-72
2023/01/28 03:04:47;;;;;;;11.20;5.90;;;6.20;94.40;;;;;;5071800;28;20202;-73
2023/01/28 03:07:17;;;;;;;10.77;5.93;;;6.20;94.40;;;;;;5074894;28;20582;-73
2023/01/28 03:09:47;;;;;;;12.40;6.10;;;6.30;94.30;;;;;;5064669;28;20244;-73
2023/01/28 03:37:44;;;;;;;15.33;7.23;;;6.40;94.10;;;;;;5075605;28;20241;-73
2023/01/28 03:40:13;;;;;;;12.00;6.70;;;6.40;94.10;;;;;;5068666;28;20246;-73
2023/01/28 03:42:42;;;;;;;17.10;7.33;;;6.40;94.00;;;;;;5077621;28;20194;-73
2023/01/28 03:45:12;;;;;;;15.67;7.70;;;6.40;94.00;;;;;;5075449;28;20195;-73
2023/01/28 03:47:43;;;;;;;14.60;7.10;;;6.40;93.90;;;;;;5075562;28;20277;-73
2023/01/28 03:50:11;;;;;;;14.77;6.50;;;6.40;93.90;;;;;;5071604;28;20193;-73
2023/01/28 03:52:40;;;;;;;12.33;6.30;;;6.40;93.80;;;;;;5070475;28;20197;-73
2023/01/28 03:55:13;;;;;;;13.87;6.60;;;6.40;93.80;;;;;;5068179;28;20197;-73
2023/01/28 03:57:43;;;;;;;15.07;7.30;;;6.40;93.90;;;;;;5072250;28;20201;-74
2023/01/28 04:00:13;;;;;;;13.97;6.87;;;6.40;93.90;;;;;;5068103;28;20203;-73
2023/01/28 04:02:43;;;;;;;15.53;7.63;;;6.40;93.90;;;;;;5072553;28;20636;-72
2023/01/28 04:05:14;;;;;;;13.10;7.17;;;6.40;93.90;;;;;;5061709;28;20269;-73
2023/01/28 04:07:43;;;;;;;15.40;7.87;;;6.40;93.80;;;;;;5072994;28;20192;-72
2023/01/28 04:10:13;;;;;;;16.60;7.50;;;6.40;93.80;;;;;;5070464;28;20260;-72
2023/01/28 04:12:42;;;;;;;16.00;7.97;;;6.40;93.80;;;;;;5067615;28;20595;-73
2023/01/28 04:15:15;;;;;;;14.63;7.80;;;6.40;93.80;;;;;;5070020;28;20198;-72
2023/01/28 04:17:48;;;;;;;15.97;7.90;;;6.40;93.80;;;;;;5065800;28;20266;-72
2023/01/28 04:20:18;;;;;;;14.47;7.53;;;6.40;93.70;;;;;;5077999;28;20296;-73
2023/01/28 04:22:46;;;;;;;13.07;6.93;;;6.40;93.70;;;;;;5064611;28;20260;-73
2023/01/28 04:25:15;;;;;;;14.47;6.83;;;6.40;94.10;;;;;;5072118;28;20310;-72
2023/01/28 04:27:43;;;;;;;15.67;7.40;;;6.30;93.70;;;;;;5074282;28;20196;-73
2023/01/28 04:30:12;;;;;;;13.90;7.40;;;6.30;93.60;;;;;;5070373;28;20200;-73
2023/01/28 04:32:40;;;;;;;15.47;7.40;;;6.30;93.70;;;;;;5070460;28;20205;-72
2023/01/28 04:35:10;;;;;;;16.37;7.93;;;6.30;93.70;;;;;;5074423;28;20228;-72
2023/01/28 04:37:41;;;;;;;14.87;7.50;;;6.30;93.80;;;;;;5074221;28;20670;-72
2023/01/28 04:40:11;;;;;;;21.00;7.67;;;6.30;93.70;;;;;;5071383;28;20193;-72
2023/01/28 04:42:39;;;;;;;17.87;7.67;;;6.30;93.70;;;;;;5073455;28;20216;-73
2023/01/28 04:45:09;;;;;;;15.67;8.57;;;6.30;93.70;;;;;;5072642;28;20447;-73
2023/01/28 04:47:37;;;;;;;18.60;8.23;;;6.20;93.80;;;;;;5077382;28;20193;-73
2023/01/28 04:50:06;;;;;;;15.47;7.97;;;6.20;93.80;;;;;;5068064;28;21479;-73
2023/01/28 04:52:36;;;;;;;17.23;8.37;;;6.20;93.80;;;;;;5071805;28;20244;-73
2023/01/28 04:55:05;;;;;;;19.60;8.37;;;6.20;93.80;;;;;;5081092;28;20197;-73
2023/01/28 04:57:33;;;;;;;18.43;8.67;;;6.20;93.80;;;;;;5071448;28;20198;-74
2023/01/28 05:00:01;;;;;;;17.77;8.77;;;6.20;93.80;;;;;;5078789;28;20192;-73
2023/01/28 05:02:29;;;;;;;17.93;8.30;;;6.10;93.60;;;;;;5073934;28;20296;-72
2023/01/28 05:05:00;;;;;;;15.23;8.03;;;6.10;93.60;;;;;;5080650;28;20283;-73
2023/01/28 05:07:28;;;;;;;14.57;7.27;;;6.10;93.60;;;;;;5068358;28;20247;-73
2023/01/28 05:10:00;;;;;;;16.83;8.60;;;6.00;93.50;;;;;;5069731;28;20201;-73
2023/01/28 05:12:32;;;;;;;17.27;7.50;;;6.00;93.60;;;;;;5075145;28;20186;-73
2023/01/28 05:15:01;;;;;;;17.47;9.53;;;6.00;93.60;;;;;;5066749;28;20482;-73
2023/01/28 05:17:29;;;;;;;16.67;7.93;;;6.00;93.70;;;;;;5072546;28;20493;-73
2023/01/28 05:19:58;;;;;;;17.57;9.03;;;6.00;93.70;;;;;;5074220;28;20205;-72
2023/01/28 05:22:26;;;;;;;18.30;8.37;;;5.90;93.60;;;;;;5067321;28;20194;-74
2023/01/28 05:24:54;;;;;;;19.87;9.40;;;5.90;93.60;;;;;;5072450;28;20257;-73
2023/01/28 05:27:24;;;;;;;21.40;11.20;;;5.90;93.70;;;;;;5068202;28;20493;-73
2023/01/28 05:29:52;;;;;;;20.50;9.57;;;5.90;94.00;;;;;;5072195;28;20447;-73
2023/01/28 05:32:21;;;;;;;20.27;8.70;;;5.90;94.00;;;;;;5072965;28;20270;-73
2023/01/28 05:34:49;;;;;;;15.57;7.90;;;5.90;93.90;;;;;;5076367;28;20197;-72
2023/01/28 05:37:17;;;;;;;15.10;8.60;;;5.80;93.80;;;;;;5068735;28;20215;-73
2023/01/28 05:39:46;;;;;;;16.60;8.53;;;5.80;93.70;;;;;;5068263;28;20656;-73
2023/01/28 05:42:14;;;;;;;16.17;8.07;;;5.70;93.60;;;;;;5077091;28;20237;-72
2023/01/28 05:44:44;;;;;;;13.87;7.33;;;5.70;93.60;;;;;;5072643;28;20209;-74
2023/01/28 05:47:12;;;;;;;16.20;7.50;;;5.70;93.70;;;;;;5071949;28;20674;-72
2023/01/28 05:49:40;;;;;;;16.53;7.60;;;5.60;93.70;;;;;;5074423;28;20258;-73
2023/01/28 05:52:09;;;;;;;12.90;7.03;;;5.60;93.80;;;;;;5066847;28;20211;-72
2023/01/28 05:54:37;;;;;;;12.93;6.73;;;5.50;93.80;;;;;;5063391;28;20984;-73
2023/01/28 05:57:06;;;;;;;13.90;6.43;;;5.50;94.20;;;;;;5072346;28;20664;-72
2023/01/28 05:59:34;;;;;;;13.57;6.77;;;5.50;93.90;;;;;;5061717;28;20190;-73
2023/01/28 06:02:04;;;;;;;11.77;6.20;;;5.40;93.90;;;;;;5067153;28;20249;-73
2023/01/28 06:04:32;;;;;;;14.37;7.80;;;5.40;94.00;;;;;;5060788;28;20311;-74
2023/01/28 06:07:00;;;;;;;13.53;7.07;;;5.40;94.00;;;;;;5067892;28;20656;-72
2023/01/28 06:09:29;;;;;;;14.37;7.17;;;5.50;94.10;;;;;;5075831;28;20195;-73
2023/01/28 06:11:57;;;;;;;15.87;7.37;;;5.40;94.10;;;;;;5066361;28;20554;-74
2023/01/28 06:14:25;;;;;;;15.70;7.50;;;5.40;94.10;;;;;;5073335;28;20619;-74
2023/01/28 06:16:54;;;;;;;13.20;7.03;;;5.40;94.10;;;;;;5058013;28;21823;-73
2023/01/28 06:19:23;;;;;;;10.87;6.07;;;5.40;94.10;;;;;;5071240;28;20193;-73
2023/01/28 06:21:52;;;;;;;15.37;8.13;;;5.40;94.10;;;;;;5061079;28;20196;-72
2023/01/28 06:24:20;;;;;;;17.73;8.73;;;5.40;94.20;;;;;;5067954;28;20777;-74
2023/01/28 06:26:49;;;;;;;10.67;6.30;;;5.40;94.40;;;;;;5065460;28;20189;-72
2023/01/28 06:29:17;;;;;;;14.37;6.80;;;5.40;94.30;;;;;;5067073;28;20240;-74
2023/01/28 06:31:45;;;;;;;15.57;7.70;;;5.40;94.30;;;;;;5062205;28;20797;-75
2023/01/28 06:34:14;;;;;;;15.70;7.00;;;5.50;94.40;;;;;;5070481;28;20199;-75
2023/01/28 06:36:44;;;;;;;13.57;6.57;;;5.40;94.30;;;;;;5068033;28;20596;-72
2023/01/28 06:39:12;;;;;;;13.07;6.70;;;5.40;94.20;;;;;;5064475;28;20616;-72
2023/01/28 06:41:41;;;;;;;13.33;6.90;;;5.50;94.30;;;;;;5070231;28;20193;-73
2023/01/28 06:44:10;;;;;;;13.00;6.73;;;5.40;94.20;;;;;;5067726;28;20228;-73
2023/01/28 06:46:38;;;;;;;12.33;6.57;;;5.50;94.20;;;;;;5061898;28;20313;-73
2023/01/28 06:49:07;;;;;;;14.37;6.87;;;5.50;94.20;;;;;;5066069;28;20754;-73
2023/01/28 06:51:35;;;;;;;11.90;5.90;;;5.40;94.10;;;;;;5066351;28;20191;-72
2023/01/28 06:54:05;;;;;;;14.68;7.38;;;5.40;94.20;;;;;;5071990;28;20481;-72
2023/01/28 06:56:34;;;;;;;13.30;7.13;;;5.40;94.30;;;;;;5065825;28;20293;-73
2023/01/28 06:59:02;;;;;;;17.37;8.70;;;5.30;94.30;;;;;;5067287;28;20591;-73
2023/01/28 07:01:30;;;;;;;13.10;7.13;;;5.40;94.30;;;;;;5065072;28;20248;-73
2023/01/28 07:03:59;;;;;;;13.57;6.93;;;5.30;94.30;;;;;;5070328;28;20240;-73
2023/01/28 07:06:27;;;;;;;13.90;6.47;;;5.30;94.40;;;;;;5058562;28;20220;-73
2023/01/28 07:08:55;;;;;;;15.33;6.30;;;5.40;94.40;;;;;;5075601;28;20227;-73
2023/01/28 07:11:25;;;;;;;12.27;6.77;;;5.50;94.40;;;;;;5064909;28;20223;-73
2023/01/28 07:13:53;;;;;;;14.60;7.33;;;5.50;94.40;;;;;;5068443;28;20673;-71
2023/01/28 07:16:22;;;;;;;15.30;7.40;;;5.60;94.40;;;;;;5066880;28;20646;-72
2023/01/28 07:18:50;;;;;;;15.33;7.40;;;5.60;94.30;;;;;;5064956;28;20582;-74
2023/01/28 07:21:18;;;;;;;15.30;7.80;;;5.60;94.30;;;;;;5063504;28;20591;-72
2023/01/28 07:23:47;;;;;;;16.53;7.43;;;5.70;94.40;;;;;;5075936;28;20208;-76
2023/01/28 07:26:15;;;;;;;14.83;7.57;;;5.80;94.40;;;;;;5073028;28;20247;-76
2023/01/28 07:28:45;;;;;;;14.40;8.20;;;5.90;94.50;;;;;;5064913;28;20193;-75
2023/01/28 07:31:13;;;;;;;15.60;7.37;;;6.00;94.40;;;;;;5073453;28;20194;-75
2023/01/28 07:33:42;;;;;;;15.37;7.83;;;6.00;94.30;;;;;;5068814;28;20188;-75
2023/01/28 07:36:10;;;;;;;18.07;8.60;;;6.10;94.20;;;;;;5065325;28;20185;-73
2023/01/28 07:38:42;;;;;;;15.83;8.10;;;6.10;94.00;;;;;;5068200;28;20264;-74
2023/01/28 07:41:13;;;;;;;17.93;8.77;;;6.20;94.10;;;;;;5068670;28;20201;-74
2023/01/28 07:43:41;;;;;;;17.47;8.87;;;6.30;94.00;;;;;;5079999;28;20597;-73
2023/01/28 07:46:13;;;;;;;16.30;8.20;;;6.30;93.90;;;;;;5069091;28;21158;-74
2023/01/28 07:48:41;;;;;;;13.83;8.00;;;6.30;93.80;;;;;;5071910;28;20186;-75
2023/01/28 07:51:16;;;;;;;15.67;7.73;;;6.40;93.60;;;;;;5071256;28;20259;-75
2023/01/28 07:53:50;;;;;;;14.87;7.67;;;6.40;93.50;;;;;;5069237;28;20646;-73
2023/01/28 07:56:18;;;;;;;14.70;8.70;;;6.40;93.50;;;;;;5067858;28;20244;-73
2023/01/28 07:58:50;;;;;;;15.27;8.13;;;6.40;93.50;;;;;;5069897;28;20574;-73
2023/01/28 08:01:19;;;;;;;14.10;7.27;;;6.50;93.50;;;;;;5070443;28;20197;-74
2023/01/28 08:03:48;;;;;;;13.30;7.17;;;6.50;93.40;;;;;;5071127;28;20220;-74
2023/01/28 08:06:16;;;;;;;14.43;7.73;;;6.60;93.40;;;;;;5076075;28;20225;-74
2023/01/28 08:08:44;;;;;;;11.73;6.30;;;6.60;93.30;;;;;;5073124;28;20194;-74
2023/01/28 08:11:12;;;;;;;11.77;6.03;;;6.60;93.30;;;;;;5073630;28;20225;-73
2023/01/28 08:13:41;;;;;;;10.97;6.20;;;6.50;93.10;;;;;;5069324;28;20198;-75
2023/01/28 08:16:09;;;;;;;12.77;6.23;;;6.60;93.10;;;;;;5065768;28;20221;-73
2023/01/28 08:18:39;;;;;;;11.70;5.87;;;6.70;93.10;;;;;;5066655;28;20224;-73
2023/01/28 08:21:07;;;;;;;10.37;6.13;;;6.70;93.10;;;;;;5060998;28;20203;-73
2023/01/28 08:23:36;;;;;;;10.37;5.70;;;6.70;93.00;;;;;;5064925;28;20204;-74
2023/01/28 08:26:04;;;;;;;12.77;6.07;;;6.70;92.90;;;;;;5065546;28;20210;-73
2023/01/28 08:28:32;;;;;;;11.97;6.27;;;6.70;92.90;;;;;;5065791;28;20187;-74
2023/01/28 08:31:01;;;;;;;11.80;5.80;;;6.70;92.90;;;;;;5056213;28;20231;-72
2023/01/28 08:33:29;;;;;;;12.67;5.73;;;6.60;92.80;;;;;;5061315;28;20191;-74
2023/01/28 08:36:02;;;;;;;12.03;6.13;;;6.60;92.90;;;;;;5057496;28;20199;-74
2023/01/28 08:38:31;;;;;;;11.93;6.10;;;6.70;93.00;;;;;;5061249;28;20240;-73
2023/01/28 08:40:59;;;;;;;11.23;6.10;;;6.70;92.90;;;;;;5068042;28;20183;-73
2023/01/28 08:43:27;;;;;;;12.23;6.03;;;6.70;92.90;;;;;;5076154;28;20535;-73
2023/01/28 08:45:56;;;;;;;11.23;6.23;;;6.70;92.90;;;;;;5069679;28;20633;-74
2023/01/28 08:48:24;;;;;;;13.97;6.83;;;6.70;93.00;;;;;;5065060;28;20220;-74
2023/01/28 08:50:52;;;;;;;13.00;7.33;;;6.70;93.00;;;;;;5068587;28;20202;-75
2023/01/28 08:53:22;;;;;;;14.97;6.93;;;6.80;93.00;;;;;;5067228;28;20254;-73
2023/01/28 08:55:50;;;;;;;13.93;6.97;;;6.80;92.90;;;;;;5072312;28;20207;-73
2023/01/28 08:58:19;;;;;;;11.20;6.67;;;6.80;93.00;;;;;;5066778;28;20221;-73
2023/01/28 09:00:48;;;;;;;14.53;7.03;;;6.80;92.90;;;;;;5062558;28;20283;-73
2023/01/28 09:03:17;;;;;;;13.47;6.93;;;6.90;92.90;;;;;;5066051;28;20218;-72
2023/01/28 09:05:45;;;;;;;15.23;6.00;;;6.80;92.80;;;;;;5066602;28;20271;-72
2023/01/28 09:08:15;;;;;;;9.97;6.07;;;7.00;92.80;;;;;;5068938;28;20245;-71
2023/01/28 09:10:45;;;;;;;11.20;5.87;;;6.90;92.70;;;;;;5065644;28;20191;-71
2023/01/28 09:13:15;;;;;;;12.53;6.47;;;6.90;92.70;;;;;;5067997;28;20194;-70
2023/01/28 09:15:44;;;;;;;10.33;5.63;;;7.00;92.70;;;;;;5074717;28;20195;-72
2023/01/28 09:18:12;;;;;;;9.50;4.70;;;7.00;92.60;;;;;;5077708;28;20195;-71
2023/01/28 09:20:40;;;;;;;10.57;5.87;;;7.00;92.60;;;;;;5066661;28;20247;-72
2023/01/28 09:23:09;;;;;;;10.52;6.55;;;7.00;92.50;;;;;;5072204;28;20509;-72
2023/01/28 09:25:38;;;;;;;10.57;5.93;;;7.00;92.70;;;;;;5056662;28;20224;-72
2023/01/28 09:28:08;;;;;;;9.03;5.50;;;7.00;92.60;;;;;;5063315;28;20225;-73
2023/01/28 09:30:38;;;;;;;9.90;5.37;;;7.00;92.60;;;;;;5069037;28;20195;-74
2023/01/28 09:33:07;;;;;;;10.23;5.23;;;7.00;92.40;;;;;;5074533;28;20297;-75
2023/01/28 09:35:35;;;;;;;10.10;5.13;;;7.20;92.50;;;;;;5060777;28;20279;-73
2023/01/28 09:38:04;;;;;;;8.67;5.00;;;7.20;92.30;;;;;;5070215;28;20635;-74
2023/01/28 09:40:36;;;;;;;7.60;4.80;;;7.10;91.90;;;;;;5068887;28;20323;-75
2023/01/28 09:43:33;;;;;;;10.90;5.30;;;7.20;92.00;;;;;;5072946;28;20640;-73
2023/01/28 09:46:04;;;;;;;9.10;5.70;;;7.20;91.80;;;;;;5061972;28;20198;-74
2023/01/28 09:48:38;;;;;;;8.65;5.63;;;7.30;92.00;;;;;;5058366;28;20439;-76
2023/01/28 09:51:11;;;;;;;10.80;5.27;;;7.30;92.10;;;;;;5061100;28;20198;-74
2023/01/28 09:53:43;;;;;;;9.60;4.70;;;7.40;92.00;;;;;;5059744;28;20733;-74
2023/01/28 09:56:19;;;;;;;8.30;4.83;;;7.50;92.00;;;;;;5057370;28;20194;-75
2023/01/28 09:58:49;;;;;;;10.07;5.90;;;7.50;91.70;;;;;;5068802;28;20186;-74
2023/01/28 10:01:41;;;;;;;7.60;4.70;;;7.50;91.60;;;;;;5061852;28;20628;-75
2023/01/28 10:04:35;;;;;;;9.82;5.88;;;7.60;91.60;;;;;;5063066;28;21081;-74
2023/01/28 10:07:23;;;;;;;9.33;5.53;;;7.60;91.40;;;;;;5061112;28;20707;-74
2023/01/28 10:10:01;;;;;;;12.67;6.00;;;7.60;91.30;;;;;;5065814;28;20186;-75
2023/01/28 10:12:40;;;;;;;10.27;5.10;;;7.70;91.30;;;;;;5063653;28;20252;-73
2023/01/28 10:15:27;;;;;;;11.87;5.80;;;7.70;91.30;;;;;;5070383;28;20198;-74
2023/01/28 10:18:01;;;;;;;9.97;5.27;;;7.70;91.30;;;;;;5069850;28;20224;-72
2023/01/28 10:20:47;;;;;;;8.27;5.27;;;7.80;91.10;;;;;;5071459;28;20558;-72
2023/01/28 10:23:22;;;;;;;10.13;5.20;;;7.80;91.20;;;;;;5064330;28;20218;-72
2023/01/28 10:25:51;;;;;;;10.57;6.07;;;7.70;91.10;;;;;;5065930;28;20198;-72
2023/01/28 10:28:22;;;;;;;11.67;5.40;;;7.70;91.00;;;;;;5067927;28;20214;-72
2023/01/28 10:30:53;;;;;;;9.50;5.20;;;7.70;91.10;;;;;;5063740;28;20214;-72
2023/01/28 10:33:28;;;;;;;11.23;6.60;;;7.70;91.20;;;;;;5068559;28;20651;-73
2023/01/28 10:35:57;;;;;;;10.27;5.87;;;7.70;91.20;;;;;;5064134;28;20194;-72
2023/01/28 10:38:28;;;;;;;11.87;6.33;;;7.70;91.10;;;;;;5061464;28;20198;-73
2023/01/28 10:41:00;;;;;;;10.50;6.23;;;7.60;90.90;;;;;;5070544;28;20194;-73
2023/01/28 10:43:32;;;;;;;9.13;4.80;;;7.50;90.90;;;;;;5076752;28;20621;-72
2023/01/28 10:46:16;;;;;;;8.48;5.35;;;7.40;91.00;;;;;;5059161;28;20435;-73
2023/01/28 10:48:48;;;;;;;9.67;5.73;;;7.50;91.10;;;;;;5075185;28;20259;-72
2023/01/28 10:51:18;;;;;;;9.77;5.47;;;7.40;91.00;;;;;;5068488;28;20603;-73
2023/01/28 10:53:47;;;;;;;10.90;5.23;;;7.40;91.10;;;;;;5075409;28;20194;-73
2023/01/28 10:56:18;;;;;;;9.50;5.57;;;7.40;91.20;;;;;;5062748;28;20599;-73
2023/01/28 10:58:59;;;;;;;11.97;6.20;;;7.40;91.20;;;;;;5063753;28;20220;-74
2023/01/28 11:01:41;;;;;;;11.67;5.67;;;7.40;91.30;;;;;;5060683;28;20595;-75
2023/01/28 11:04:24;;;;;;;10.37;5.53;;;7.40;91.30;;;;;;5066504;28;20256;-75
2023/01/28 11:06:54;;;;;;;10.60;5.17;;;7.40;91.40;;;;;;5035222;28;20204;-75
2023/01/28 11:09:34;;;;;;;10.53;5.43;;;7.40;91.40;;;;;;5067336;28;20187;-74
2023/01/28 11:12:12;;;;;;;10.43;5.67;;;7.30;91.30;;;;;;5062784;28;20190;-75
2023/01/28 11:14:51;;;;;;;12.13;5.70;;;7.20;91.30;;;;;;5060710;28;20248;-74
2023/01/28 11:17:23;;;;;;;9.90;5.60;;;7.20;91.40;;;;;;5065767;28;20246;-73
2023/01/28 11:19:53;;;;;;;8.90;5.37;;;7.10;91.40;;;;;;5067665;28;20183;-75
2023/01/28 11:22:29;;;;;;;10.37;5.83;;;7.10;91.40;;;;;;5059857;28;20697;-75
2023/01/28 11:24:58;;;;;;;9.80;5.73;;;7.10;91.50;;;;;;5066653;28;20736;-76
2023/01/28 11:27:29;;;;;;;9.83;6.07;;;7.10;91.60;;;;;;5064119;28;20214;-73
2023/01/28 11:30:02;;;;;;;11.13;6.20;;;7.00;91.50;;;;;;5072709;28;20272;-73
2023/01/28 11:32:32;;;;;;;11.37;6.50;;;6.90;91.60;;;;;;5069803;28;20197;-74
2023/01/28 11:35:00;;;;;;;11.20;6.57;;;6.90;91.60;;;;;;5068387;28;21536;-74
2023/01/28 11:37:29;;;;;;;10.47;6.23;;;6.80;91.90;;;;;;5067898;28;20597;-75
2023/01/28 11:40:19;;;;;;;12.13;6.20;;;6.80;91.90;;;;;;5071668;28;20606;-73
2023/01/28 11:42:51;;;;;;;10.90;6.10;;;6.70;92.00;;;;;;5060226;28;20198;-75
2023/01/28 11:45:30;;;;;;;10.10;5.70;;;6.80;92.00;;;;;;5065900;28;20194;-75
2023/01/28 11:48:19;;;;;;;9.57;5.33;;;6.70;92.10;;;;;;5069475;28;20210;-74
2023/01/28 11:50:53;;;;;;;10.87;5.67;;;6.60;92.10;;;;;;5065712;28;20198;-73
2023/01/28 11:53:48;;;;;;;9.57;5.73;;;6.60;92.20;;;;;;5073247;28;20202;-73
2023/01/28 11:56:39;;;;;;;13.43;5.50;;;6.60;92.20;;;;;;5066186;28;20197;-76
2023/01/28 11:59:25;;;;;;;11.83;6.80;;;6.60;92.30;;;;;;5067031;28;20832;-74
2023/01/28 12:02:00;;;;;;;10.57;5.40;;;6.60;92.70;;;;;;5061183;28;20473;-74
2023/01/28 12:04:52;;;;;;;10.07;5.37;;;6.60;92.50;;;;;;5064288;28;20720;-75
2023/01/28 12:07:32;;;;;;;11.57;5.83;;;6.60;92.50;;;;;;5068606;28;20202;-76
2023/01/28 12:10:09;;;;;;;11.45;6.40;;;6.60;92.50;;;;;;5070362;28;20439;-76
2023/01/28 12:12:54;;;;;;;14.20;5.97;;;6.60;92.60;;;;;;5068959;28;20198;-75
2023/01/28 12:15:50;;;;;;;9.97;6.03;;;6.50;92.50;;;;;;5075038;28;20252;-76
2023/01/28 12:18:32;;;;;;;11.87;6.33;;;6.50;92.60;;;;;;5062115;28;20194;-77
2023/01/28 12:21:07;;;;;;;10.00;5.90;;;6.50;92.60;;;;;;5072274;28;20190;-77
2023/01/28 12:23:47;;;;;;;10.50;5.37;;;6.50;92.60;;;;;;5069424;28;20201;-76
2023/01/28 12:26:19;;;;;;;11.83;6.17;;;6.50;92.70;;;;;;5063682;28;20216;-74
2023/01/28 12:29:03;;;;;;;11.70;6.17;;;6.40;92.70;;;;;;5073536;28;20213;-76
2023/01/28 12:31:48;;;;;;;11.67;6.40;;;6.40;93.20;;;;;;5070871;28;20186;-76
2023/01/28 12:34:55;;;;;;;13.53;6.20;;;6.30;92.80;;;;;;5070729;28;20236;-77
2023/01/28 12:37:33;;;;;;;10.53;5.97;;;6.30;92.90;;;;;;5059586;28;20199;-76
2023/01/28 12:40:15;;;;;;;16.80;6.67;;;6.30;93.00;;;;;;5063695;28;20194;-77
2023/01/28 12:42:48;;;;;;;10.30;5.93;;;6.20;93.00;;;;;;5068338;28;20555;-76
2023/01/28 12:45:23;;;;;;;10.07;5.63;;;6.20;93.10;;;;;;5070828;28;20198;-77
2023/01/28 12:47:57;;;;;;;10.40;6.03;;;6.20;93.10;;;;;;5075463;28;20204;-75
2023/01/28 12:50:31;;;;;;;13.67;7.60;;;6.10;93.20;;;;;;5082287;28;20247;-75
2023/01/28 12:53:17;;;;;;;10.73;5.97;;;6.20;93.20;;;;;;5069733;28;20195;-76
2023/01/28 12:55:48;;;;;;;11.93;5.93;;;6.10;93.30;;;;;;5065803;28;20217;-76
2023/01/28 12:58:21;;;;;;;12.67;6.00;;;6.10;93.40;;;;;;5067787;28;20206;-75
2023/01/28 13:00:53;;;;;;;10.93;6.33;;;6.10;93.50;;;;;;5066194;28;20183;-74
2023/01/28 13:03:31;;;;;;;11.03;6.33;;;6.10;93.50;;;;;;5063486;28;20241;-75
2023/01/28 13:06:02;;;;;;;12.63;6.87;;;6.10;93.60;;;;;;5059449;28;20206;-75
2023/01/28 13:08:32;;;;;;;13.97;6.70;;;6.10;93.60;;;;;;5067708;28;20316;-73
2023/01/28 13:11:02;;;;;;;16.97;7.27;;;6.10;93.60;;;;;;5066299;28;20267;-74
2023/01/28 13:13:32;;;;;;;13.33;7.37;;;6.10;93.60;;;;;;5064837;28;20202;-73
2023/01/28 13:16:02;;;;;;;13.33;7.10;;;6.10;93.70;;;;;;5064569;28;20190;-73
2023/01/28 13:18:44;;;;;;;12.63;7.33;;;6.10;93.70;;;;;;5062890;28;20444;-75
2023/01/28 13:21:28;;;;;;;12.50;7.10;;;6.00;93.80;;;;;;5068438;28;20228;-73
2023/01/28 13:24:21;;;;;;;14.60;7.47;;;6.00;93.80;;;;;;5069172;28;20558;-75
2023/01/28 13:26:52;;;;;;;15.63;7.63;;;5.90;93.80;;;;;;5069740;28;20530;-73
2023/01/28 13:29:32;;;;;;;13.10;7.63;;;6.00;93.90;;;;;;5066447;28;20297;-74
2023/01/28 13:32:02;;;;;;;13.90;7.47;;;5.90;93.90;;;;;;5063348;28;20216;-73
2023/01/28 13:34:36;;;;;;;14.77;7.70;;;5.90;94.00;;;;;;5068297;28;20183;-73
2023/01/28 13:37:17;;;;;;;12.00;6.43;;;5.90;94.00;;;;;;5065937;28;20890;-74
2023/01/28 13:39:51;;;;;;;14.30;6.97;;;5.80;94.00;;;;;;5068293;28;20661;-73
2023/01/28 13:42:26;;;;;;;12.63;7.07;;;5.80;94.10;;;;;;5063537;28;20949;-73
2023/01/28 13:44:55;;;;;;;11.90;6.43;;;5.80;94.10;;;;;;5073938;28;20186;-73